EGNM/LBA METAR and TAF weather

Enter ICAO airport designator
Station Type Date Time Source
EGNM METAR 2021/09/27 07:50 UTC NOAA

EGNM 270750Z 27020KT 3500 -RA SCT006 BKN011 10/09 Q0998 RERA


Station Type Date Time Source
EGNM Decoded METAR 2021/09/27 07:50 UTC NOAA

Leeds And Bradford, United Kingdom (EGNM) 53-52N 001-39W
Sep 27, 2021 - 03:50 AM EDT / 2021.09.27 0750 UTC
Wind: from the W (270 degrees) at 23 MPH (20 KT):0
Visibility: 2 mile(s):0
Sky conditions: mostly cloudy
Weather: light rain
Temperature: 50 F (10 C)
Dew Point: 48 F (9 C)
Relative Humidity: 93%
Pressure (altimeter): 29.47 in. Hg (0998 hPa)
ob: EGNM 270750Z 27020KT 3500 -RA SCT006 BKN011 10/09 Q0998 RERA
cycle: 8

Station Type Date Time Source
EGNM TAF 2021/09/27 06:15 UTC NOAA

TAF TAF EGNM 270507Z 2706/2806 15020G35KT 9999 SCT020
BECMG 2706/2709 26015G25KT
TEMPO 2706/2709 4000 RA BKN012 PROB30
TEMPO 2706/2708 1400 +RA BKN008 PROB30
TEMPO 2709/2718 8000 SHRA
BECMG 2718/2721 20008KT

Example: see airport list